sensor_id;sensor_type;location;lat;lon;timestamp;P1;durP1;ratioP1;P2;durP2;ratioP2
66597;SDS011;57424;53.128;6.406;2023-05-16T00:00:24;4.43;;;1.75;;
66597;SDS011;57424;53.128;6.406;2023-05-16T00:02:50;4.88;;;2.13;;
66597;SDS011;57424;53.128;6.406;2023-05-16T00:05:15;4.80;;;1.80;;
66597;SDS011;57424;53.128;6.406;2023-05-16T00:07:42;3.42;;;1.60;;
66597;SDS011;57424;53.128;6.406;2023-05-16T00:10:08;4.47;;;1.77;;
66597;SDS011;57424;53.128;6.406;2023-05-16T00:12:35;3.20;;;2.10;;
66597;SDS011;57424;53.128;6.406;2023-05-16T00:15:01;4.80;;;1.92;;
66597;SDS011;57424;53.128;6.406;2023-05-16T00:17:29;5.45;;;2.00;;
66597;SDS011;57424;53.128;6.406;2023-05-16T00:19:54;3.60;;;1.95;;
66597;SDS011;57424;53.128;6.406;2023-05-16T00:22:23;4.53;;;2.00;;
66597;SDS011;57424;53.128;6.406;2023-05-16T00:24:49;4.20;;;1.90;;
66597;SDS011;57424;53.128;6.406;2023-05-16T00:27:14;7.38;;;2.67;;
66597;SDS011;57424;53.128;6.406;2023-05-16T00:29:40;3.42;;;1.70;;
66597;SDS011;57424;53.128;6.406;2023-05-16T00:32:06;5.82;;;1.70;;
66597;SDS011;57424;53.128;6.406;2023-05-16T00:34:32;4.00;;;1.70;;
66597;SDS011;57424;53.128;6.406;2023-05-16T00:36:58;3.85;;;1.90;;
66597;SDS011;57424;53.128;6.406;2023-05-16T00:39:24;5.18;;;2.42;;
66597;SDS011;57424;53.128;6.406;2023-05-16T00:41:50;4.78;;;1.83;;
66597;SDS011;57424;53.128;6.406;2023-05-16T00:44:16;3.40;;;1.70;;
66597;SDS011;57424;53.128;6.406;2023-05-16T00:46:42;3.13;;;1.60;;
66597;SDS011;57424;53.128;6.406;2023-05-16T00:49:08;4.15;;;1.73;;
66597;SDS011;57424;53.128;6.406;2023-05-16T00:51:33;4.30;;;1.80;;
66597;SDS011;57424;53.128;6.406;2023-05-16T00:54:02;4.25;;;1.95;;
66597;SDS011;57424;53.128;6.406;2023-05-16T00:56:28;2.70;;;1.50;;
66597;SDS011;57424;53.128;6.406;2023-05-16T00:58:54;4.95;;;1.92;;
66597;SDS011;57424;53.128;6.406;2023-05-16T01:01:20;4.50;;;2.03;;
66597;SDS011;57424;53.128;6.406;2023-05-16T01:03:49;4.85;;;1.75;;
66597;SDS011;57424;53.128;6.406;2023-05-16T01:06:14;3.95;;;1.80;;
66597;SDS011;57424;53.128;6.406;2023-05-16T01:08:40;3.70;;;1.85;;
66597;SDS011;57424;53.128;6.406;2023-05-16T01:16:32;3.95;;;1.73;;
66597;SDS011;57424;53.128;6.406;2023-05-16T01:22:14;4.07;;;1.58;;
66597;SDS011;57424;53.128;6.406;2023-05-16T01:27:38;4.80;;;1.52;;
66597;SDS011;57424;53.128;6.406;2023-05-16T01:30:12;5.10;;;1.83;;
66597;SDS011;57424;53.128;6.406;2023-05-16T01:32:40;4.07;;;2.03;;
66597;SDS011;57424;53.128;6.406;2023-05-16T01:35:05;5.47;;;2.15;;
66597;SDS011;57424;53.128;6.406;2023-05-16T01:37:34;4.00;;;1.80;;
66597;SDS011;57424;53.128;6.406;2023-05-16T01:42:41;4.18;;;1.75;;
66597;SDS011;57424;53.128;6.406;2023-05-16T01:45:17;4.95;;;1.80;;
66597;SDS011;57424;53.128;6.406;2023-05-16T01:47:51;3.53;;;1.42;;
66597;SDS011;57424;53.128;6.406;2023-05-16T01:50:24;5.18;;;1.58;;
66597;SDS011;57424;53.128;6.406;2023-05-16T01:52:57;3.80;;;1.60;;
66597;SDS011;57424;53.128;6.406;2023-05-16T01:55:44;4.07;;;1.48;;
66597;SDS011;57424;53.128;6.406;2023-05-16T01:58:11;3.75;;;1.40;;
66597;SDS011;57424;53.128;6.406;2023-05-16T02:00:39;4.00;;;1.40;;
66597;SDS011;57424;53.128;6.406;2023-05-16T02:03:05;2.85;;;1.65;;
66597;SDS011;57424;53.128;6.406;2023-05-16T02:05:31;4.95;;;1.70;;
66597;SDS011;57424;53.128;6.406;2023-05-16T02:07:58;4.05;;;1.40;;
66597;SDS011;57424;53.128;6.406;2023-05-16T02:10:23;3.40;;;1.67;;
66597;SDS011;57424;53.128;6.406;2023-05-16T02:12:50;3.25;;;1.50;;
66597;SDS011;57424;53.128;6.406;2023-05-16T02:15:16;5.15;;;1.70;;
66597;SDS011;57424;53.128;6.406;2023-05-16T02:17:41;4.20;;;1.67;;
66597;SDS011;57424;53.128;6.406;2023-05-16T02:20:07;4.18;;;1.55;;
66597;SDS011;57424;53.128;6.406;2023-05-16T02:22:34;3.53;;;1.40;;
66597;SDS011;57424;53.128;6.406;2023-05-16T02:25:01;3.90;;;1.50;;
66597;SDS011;57424;53.128;6.406;2023-05-16T02:27:27;4.18;;;1.58;;
66597;SDS011;57424;53.128;6.406;2023-05-16T02:29:53;3.78;;;1.70;;
66597;SDS011;57424;53.128;6.406;2023-05-16T02:32:19;2.88;;;1.35;;
66597;SDS011;57424;53.128;6.406;2023-05-16T02:34:45;4.00;;;1.60;;
66597;SDS011;57424;53.128;6.406;2023-05-16T02:37:10;2.30;;;1.23;;
66597;SDS011;57424;53.128;6.406;2023-05-16T02:39:36;2.95;;;1.50;;
66597;SDS011;57424;53.128;6.406;2023-05-16T02:42:02;3.83;;;1.40;;
66597;SDS011;57424;53.128;6.406;2023-05-16T02:44:28;3.10;;;1.52;;
66597;SDS011;57424;53.128;6.406;2023-05-16T02:46:53;6.18;;;1.52;;
66597;SDS011;57424;53.128;6.406;2023-05-16T02:49:19;3.30;;;1.33;;
66597;SDS011;57424;53.128;6.406;2023-05-16T02:51:45;3.42;;;1.75;;
66597;SDS011;57424;53.128;6.406;2023-05-16T02:54:11;5.13;;;1.60;;
66597;SDS011;57424;53.128;6.406;2023-05-16T02:56:36;4.20;;;1.42;;
66597;SDS011;57424;53.128;6.406;2023-05-16T02:59:02;2.80;;;1.40;;
66597;SDS011;57424;53.128;6.406;2023-05-16T03:01:28;4.22;;;1.60;;
66597;SDS011;57424;53.128;6.406;2023-05-16T03:03:54;4.97;;;1.75;;
66597;SDS011;57424;53.128;6.406;2023-05-16T03:06:19;2.97;;;1.50;;
66597;SDS011;57424;53.128;6.406;2023-05-16T03:08:45;4.15;;;1.60;;
66597;SDS011;57424;53.128;6.406;2023-05-16T03:11:11;2.45;;;1.50;;
66597;SDS011;57424;53.128;6.406;2023-05-16T03:13:37;3.65;;;1.65;;
66597;SDS011;57424;53.128;6.406;2023-05-16T03:16:02;3.42;;;1.25;;
66597;SDS011;57424;53.128;6.406;2023-05-16T03:18:30;2.58;;;1.20;;
66597;SDS011;57424;53.128;6.406;2023-05-16T03:20:55;2.92;;;1.35;;
66597;SDS011;57424;53.128;6.406;2023-05-16T03:23:22;2.95;;;1.30;;
66597;SDS011;57424;53.128;6.406;2023-05-16T03:25:47;3.22;;;1.38;;
66597;SDS011;57424;53.128;6.406;2023-05-16T03:28:15;2.67;;;1.10;;
66597;SDS011;57424;53.128;6.406;2023-05-16T03:30:42;2.97;;;1.50;;
66597;SDS011;57424;53.128;6.406;2023-05-16T03:33:07;3.10;;;1.25;;
66597;SDS011;57424;53.128;6.406;2023-05-16T03:35:33;2.95;;;1.17;;
66597;SDS011;57424;53.128;6.406;2023-05-16T03:37:59;3.58;;;1.38;;
66597;SDS011;57424;53.128;6.406;2023-05-16T03:40:25;4.13;;;1.45;;
66597;SDS011;57424;53.128;6.406;2023-05-16T03:42:51;2.95;;;1.30;;
66597;SDS011;57424;53.128;6.406;2023-05-16T03:45:17;2.58;;;1.08;;
66597;SDS011;57424;53.128;6.406;2023-05-16T03:47:42;2.45;;;1.20;;
66597;SDS011;57424;53.128;6.406;2023-05-16T03:50:08;3.78;;;1.90;;
66597;SDS011;57424;53.128;6.406;2023-05-16T03:52:34;2.58;;;1.30;;
66597;SDS011;57424;53.128;6.406;2023-05-16T03:55:00;3.72;;;1.30;;
66597;SDS011;57424;53.128;6.406;2023-05-16T03:57:30;2.92;;;1.30;;
66597;SDS011;57424;53.128;6.406;2023-05-16T03:59:56;3.08;;;1.40;;
66597;SDS011;57424;53.128;6.406;2023-05-16T04:02:22;3.00;;;1.13;;
66597;SDS011;57424;53.128;6.406;2023-05-16T04:04:47;3.95;;;1.20;;
66597;SDS011;57424;53.128;6.406;2023-05-16T04:07:13;2.33;;;1.23;;
66597;SDS011;57424;53.128;6.406;2023-05-16T04:09:39;3.10;;;1.20;;
66597;SDS011;57424;53.128;6.406;2023-05-16T04:12:04;3.25;;;1.33;;
66597;SDS011;57424;53.128;6.406;2023-05-16T04:14:30;2.80;;;1.33;;
66597;SDS011;57424;53.128;6.406;2023-05-16T04:16:56;4.07;;;1.40;;
66597;SDS011;57424;53.128;6.406;2023-05-16T04:19:22;3.17;;;1.10;;
66597;SDS011;57424;53.128;6.406;2023-05-16T04:21:47;2.33;;;1.15;;
66597;SDS011;57424;53.128;6.406;2023-05-16T04:24:13;4.03;;;1.35;;
66597;SDS011;57424;53.128;6.406;2023-05-16T04:26:38;4.18;;;1.30;;
66597;SDS011;57424;53.128;6.406;2023-05-16T04:29:04;3.45;;;1.52;;
66597;SDS011;57424;53.128;6.406;2023-05-16T04:31:30;2.92;;;1.17;;
66597;SDS011;57424;53.128;6.406;2023-05-16T04:33:55;1.85;;;1.00;;
66597;SDS011;57424;53.128;6.406;2023-05-16T04:36:22;3.55;;;1.10;;
66597;SDS011;57424;53.128;6.406;2023-05-16T04:38:47;5.35;;;1.50;;
66597;SDS011;57424;53.128;6.406;2023-05-16T04:41:13;2.72;;;1.33;;
66597;SDS011;57424;53.128;6.406;2023-05-16T04:43:39;2.78;;;1.20;;
66597;SDS011;57424;53.128;6.406;2023-05-16T04:46:06;1.95;;;0.98;;
66597;SDS011;57424;53.128;6.406;2023-05-16T04:48:32;2.72;;;1.17;;
66597;SDS011;57424;53.128;6.406;2023-05-16T04:50:58;3.80;;;1.08;;
66597;SDS011;57424;53.128;6.406;2023-05-16T04:53:24;3.20;;;1.40;;
66597;SDS011;57424;53.128;6.406;2023-05-16T04:55:49;3.88;;;1.10;;
66597;SDS011;57424;53.128;6.406;2023-05-16T04:58:15;2.45;;;1.10;;
66597;SDS011;57424;53.128;6.406;2023-05-16T05:00:41;1.98;;;1.20;;
66597;SDS011;57424;53.128;6.406;2023-05-16T05:03:06;3.33;;;1.17;;
66597;SDS011;57424;53.128;6.406;2023-05-16T05:05:32;3.40;;;1.42;;
66597;SDS011;57424;53.128;6.406;2023-05-16T05:07:58;4.32;;;1.55;;
66597;SDS011;57424;53.128;6.406;2023-05-16T05:10:24;4.13;;;1.30;;
66597;SDS011;57424;53.128;6.406;2023-05-16T05:12:51;2.25;;;0.90;;
66597;SDS011;57424;53.128;6.406;2023-05-16T05:15:18;2.90;;;1.27;;
66597;SDS011;57424;53.128;6.406;2023-05-16T05:17:43;2.80;;;1.27;;
66597;SDS011;57424;53.128;6.406;2023-05-16T05:20:09;3.30;;;1.20;;
66597;SDS011;57424;53.128;6.406;2023-05-16T05:22:36;2.97;;;0.90;;
66597;SDS011;57424;53.128;6.406;2023-05-16T05:25:01;3.20;;;1.30;;
66597;SDS011;57424;53.128;6.406;2023-05-16T05:27:27;1.77;;;1.27;;
66597;SDS011;57424;53.128;6.406;2023-05-16T05:29:52;1.70;;;1.30;;
66597;SDS011;57424;53.128;6.406;2023-05-16T05:32:18;2.47;;;1.08;;
66597;SDS011;57424;53.128;6.406;2023-05-16T05:34:44;3.53;;;1.40;;
66597;SDS011;57424;53.128;6.406;2023-05-16T05:37:09;2.47;;;1.17;;
66597;SDS011;57424;53.128;6.406;2023-05-16T05:39:35;3.30;;;1.10;;
66597;SDS011;57424;53.128;6.406;2023-05-16T05:42:00;2.88;;;1.00;;
66597;SDS011;57424;53.128;6.406;2023-05-16T05:44:27;3.28;;;1.38;;
66597;SDS011;57424;53.128;6.406;2023-05-16T05:46:53;3.83;;;1.35;;
66597;SDS011;57424;53.128;6.406;2023-05-16T05:49:19;3.50;;;1.10;;
66597;SDS011;57424;53.128;6.406;2023-05-16T05:51:44;3.58;;;1.25;;
66597;SDS011;57424;53.128;6.406;2023-05-16T05:54:10;3.55;;;1.15;;
66597;SDS011;57424;53.128;6.406;2023-05-16T05:56:36;1.30;;;1.00;;
66597;SDS011;57424;53.128;6.406;2023-05-16T05:59:01;2.78;;;1.02;;
66597;SDS011;57424;53.128;6.406;2023-05-16T06:01:27;3.80;;;1.20;;
66597;SDS011;57424;53.128;6.406;2023-05-16T06:03:52;3.63;;;1.13;;
66597;SDS011;57424;53.128;6.406;2023-05-16T06:06:18;2.85;;;1.23;;
66597;SDS011;57424;53.128;6.406;2023-05-16T06:08:43;2.85;;;0.90;;
66597;SDS011;57424;53.128;6.406;2023-05-16T06:11:09;3.13;;;1.40;;
66597;SDS011;57424;53.128;6.406;2023-05-16T06:13:35;3.85;;;1.00;;
66597;SDS011;57424;53.128;6.406;2023-05-16T06:16:00;1.73;;;0.98;;
66597;SDS011;57424;53.128;6.406;2023-05-16T06:18:26;2.50;;;1.20;;
66597;SDS011;57424;53.128;6.406;2023-05-16T06:20:52;3.55;;;1.45;;
66597;SDS011;57424;53.128;6.406;2023-05-16T06:23:19;3.47;;;1.20;;
66597;SDS011;57424;53.128;6.406;2023-05-16T06:25:44;4.82;;;1.13;;
66597;SDS011;57424;53.128;6.406;2023-05-16T06:28:10;5.70;;;1.08;;
66597;SDS011;57424;53.128;6.406;2023-05-16T06:30:35;2.17;;;0.98;;
66597;SDS011;57424;53.128;6.406;2023-05-16T06:33:01;4.32;;;1.10;;
66597;SDS011;57424;53.128;6.406;2023-05-16T06:35:27;1.90;;;0.93;;
66597;SDS011;57424;53.128;6.406;2023-05-16T06:37:52;2.63;;;1.00;;
66597;SDS011;57424;53.128;6.406;2023-05-16T06:40:18;3.55;;;1.23;;
66597;SDS011;57424;53.128;6.406;2023-05-16T06:42:43;3.65;;;1.20;;
66597;SDS011;57424;53.128;6.406;2023-05-16T06:45:09;2.58;;;1.10;;
66597;SDS011;57424;53.128;6.406;2023-05-16T06:47:35;3.15;;;0.90;;
66597;SDS011;57424;53.128;6.406;2023-05-16T06:50:00;2.63;;;1.10;;
66597;SDS011;57424;53.128;6.406;2023-05-16T06:52:26;3.85;;;1.08;;
66597;SDS011;57424;53.128;6.406;2023-05-16T06:54:52;3.05;;;1.05;;
66597;SDS011;57424;53.128;6.406;2023-05-16T06:57:17;3.60;;;1.40;;
66597;SDS011;57424;53.128;6.406;2023-05-16T06:59:43;4.18;;;1.10;;
66597;SDS011;57424;53.128;6.406;2023-05-16T07:02:08;4.25;;;1.60;;
66597;SDS011;57424;53.128;6.406;2023-05-16T07:04:34;4.45;;;1.15;;
66597;SDS011;57424;53.128;6.406;2023-05-16T07:07:01;4.40;;;1.35;;
66597;SDS011;57424;53.128;6.406;2023-05-16T07:09:28;3.25;;;1.00;;
66597;SDS011;57424;53.128;6.406;2023-05-16T07:11:54;3.22;;;1.17;;
66597;SDS011;57424;53.128;6.406;2023-05-16T07:14:20;2.33;;;0.73;;
66597;SDS011;57424;53.128;6.406;2023-05-16T07:16:45;1.52;;;0.82;;
66597;SDS011;57424;53.128;6.406;2023-05-16T07:19:11;2.75;;;1.13;;
66597;SDS011;57424;53.128;6.406;2023-05-16T07:21:36;2.63;;;1.13;;
66597;SDS011;57424;53.128;6.406;2023-05-16T07:24:02;2.67;;;1.27;;
66597;SDS011;57424;53.128;6.406;2023-05-16T07:26:28;4.45;;;1.10;;
66597;SDS011;57424;53.128;6.406;2023-05-16T07:28:53;2.97;;;1.10;;
66597;SDS011;57424;53.128;6.406;2023-05-16T07:31:19;5.15;;;1.50;;
66597;SDS011;57424;53.128;6.406;2023-05-16T07:33:45;6.05;;;1.33;;
66597;SDS011;57424;53.128;6.406;2023-05-16T07:36:11;3.25;;;1.08;;
66597;SDS011;57424;53.128;6.406;2023-05-16T07:38:37;5.32;;;1.83;;
66597;SDS011;57424;53.128;6.406;2023-05-16T07:41:03;3.70;;;1.13;;
66597;SDS011;57424;53.128;6.406;2023-05-16T07:43:29;5.68;;;1.67;;
66597;SDS011;57424;53.128;6.406;2023-05-16T07:45:54;5.82;;;1.67;;
66597;SDS011;57424;53.128;6.406;2023-05-16T07:48:20;4.40;;;1.30;;
66597;SDS011;57424;53.128;6.406;2023-05-16T07:50:45;7.47;;;2.10;;
66597;SDS011;57424;53.128;6.406;2023-05-16T07:53:11;6.05;;;1.65;;
66597;SDS011;57424;53.128;6.406;2023-05-16T07:55:37;5.95;;;1.45;;
66597;SDS011;57424;53.128;6.406;2023-05-16T07:58:02;9.35;;;1.70;;
66597;SDS011;57424;53.128;6.406;2023-05-16T08:00:28;3.63;;;1.48;;
66597;SDS011;57424;53.128;6.406;2023-05-16T08:02:53;3.22;;;1.30;;
66597;SDS011;57424;53.128;6.406;2023-05-16T08:05:19;6.13;;;1.50;;
66597;SDS011;57424;53.128;6.406;2023-05-16T08:07:45;4.57;;;1.35;;
66597;SDS011;57424;53.128;6.406;2023-05-16T08:10:10;4.78;;;1.60;;
66597;SDS011;57424;53.128;6.406;2023-05-16T08:12:36;7.82;;;1.30;;
66597;SDS011;57424;53.128;6.406;2023-05-16T08:15:02;6.10;;;1.50;;
66597;SDS011;57424;53.128;6.406;2023-05-16T08:17:28;4.55;;;1.92;;
66597;SDS011;57424;53.128;6.406;2023-05-16T08:19:53;3.78;;;1.48;;
66597;SDS011;57424;53.128;6.406;2023-05-16T08:22:20;5.22;;;1.45;;
66597;SDS011;57424;53.128;6.406;2023-05-16T08:24:45;11.10;;;2.28;;
66597;SDS011;57424;53.128;6.406;2023-05-16T08:27:11;4.30;;;1.63;;
66597;SDS011;57424;53.128;6.406;2023-05-16T08:29:36;3.75;;;1.65;;
66597;SDS011;57424;53.128;6.406;2023-05-16T08:32:02;4.78;;;1.73;;
66597;SDS011;57424;53.128;6.406;2023-05-16T08:34:29;5.18;;;1.83;;
66597;SDS011;57424;53.128;6.406;2023-05-16T08:39:21;4.43;;;1.67;;
66597;SDS011;57424;53.128;6.406;2023-05-16T08:41:47;3.70;;;1.70;;
66597;SDS011;57424;53.128;6.406;2023-05-16T08:44:12;6.85;;;2.05;;
66597;SDS011;57424;53.128;6.406;2023-05-16T08:46:45;3.25;;;1.80;;
66597;SDS011;57424;53.128;6.406;2023-05-16T08:49:15;5.45;;;1.88;;
66597;SDS011;57424;53.128;6.406;2023-05-16T08:51:42;2.60;;;1.45;;
66597;SDS011;57424;53.128;6.406;2023-05-16T08:54:10;4.97;;;2.13;;
66597;SDS011;57424;53.128;6.406;2023-05-16T08:56:40;5.05;;;1.88;;
66597;SDS011;57424;53.128;6.406;2023-05-16T08:59:06;4.38;;;1.70;;
66597;SDS011;57424;53.128;6.406;2023-05-16T09:01:32;3.78;;;1.50;;
66597;SDS011;57424;53.128;6.406;2023-05-16T09:03:58;5.68;;;1.88;;
66597;SDS011;57424;53.128;6.406;2023-05-16T09:06:25;5.95;;;2.20;;
66597;SDS011;57424;53.128;6.406;2023-05-16T09:08:54;5.20;;;1.60;;
66597;SDS011;57424;53.128;6.406;2023-05-16T09:11:20;4.97;;;2.20;;
66597;SDS011;57424;53.128;6.406;2023-05-16T09:13:46;8.23;;;2.25;;
66597;SDS011;57424;53.128;6.406;2023-05-16T09:18:43;7.03;;;2.10;;
66597;SDS011;57424;53.128;6.406;2023-05-16T09:21:10;6.68;;;1.73;;
66597;SDS011;57424;53.128;6.406;2023-05-16T09:23:37;7.97;;;2.20;;
66597;SDS011;57424;53.128;6.406;2023-05-16T09:26:04;10.70;;;2.33;;
66597;SDS011;57424;53.128;6.406;2023-05-16T09:28:31;8.07;;;2.20;;
66597;SDS011;57424;53.128;6.406;2023-05-16T09:30:57;4.05;;;2.35;;
66597;SDS011;57424;53.128;6.406;2023-05-16T09:33:26;10.75;;;2.40;;
66597;SDS011;57424;53.128;6.406;2023-05-16T09:35:54;10.38;;;2.08;;
66597;SDS011;57424;53.128;6.406;2023-05-16T09:38:23;8.40;;;2.45;;
66597;SDS011;57424;53.128;6.406;2023-05-16T09:40:50;5.57;;;2.17;;
66597;SDS011;57424;53.128;6.406;2023-05-16T09:43:16;4.93;;;1.60;;
66597;SDS011;57424;53.128;6.406;2023-05-16T09:45:45;5.55;;;1.55;;
66597;SDS011;57424;53.128;6.406;2023-05-16T09:48:12;5.97;;;1.70;;
66597;SDS011;57424;53.128;6.406;2023-05-16T09:50:39;6.30;;;2.17;;
66597;SDS011;57424;53.128;6.406;2023-05-16T09:53:06;6.50;;;1.85;;
66597;SDS011;57424;53.128;6.406;2023-05-16T09:55:32;5.10;;;1.73;;
66597;SDS011;57424;53.128;6.406;2023-05-16T09:57:58;4.65;;;1.63;;
66597;SDS011;57424;53.128;6.406;2023-05-16T10:00:30;4.40;;;1.45;;
66597;SDS011;57424;53.128;6.406;2023-05-16T10:02:57;3.13;;;1.73;;
66597;SDS011;57424;53.128;6.406;2023-05-16T10:05:26;5.45;;;1.95;;
66597;SDS011;57424;53.128;6.406;2023-05-16T10:07:55;5.65;;;2.00;;
66597;SDS011;57424;53.128;6.406;2023-05-16T10:10:22;5.97;;;1.67;;
66597;SDS011;57424;53.128;6.406;2023-05-16T10:12:49;5.97;;;1.60;;
66597;SDS011;57424;53.128;6.406;2023-05-16T10:15:16;3.55;;;1.52;;
66597;SDS011;57424;53.128;6.406;2023-05-16T10:17:42;4.05;;;1.58;;
66597;SDS011;57424;53.128;6.406;2023-05-16T10:20:12;6.97;;;1.60;;
66597;SDS011;57424;53.128;6.406;2023-05-16T10:22:41;4.15;;;1.90;;
66597;SDS011;57424;53.128;6.406;2023-05-16T10:27:43;5.25;;;1.80;;
66597;SDS011;57424;53.128;6.406;2023-05-16T10:30:11;6.20;;;1.92;;
66597;SDS011;57424;53.128;6.406;2023-05-16T10:32:38;4.53;;;1.83;;
66597;SDS011;57424;53.128;6.406;2023-05-16T10:35:04;3.95;;;1.85;;
66597;SDS011;57424;53.128;6.406;2023-05-16T10:37:30;3.70;;;1.90;;
66597;SDS011;57424;53.128;6.406;2023-05-16T10:39:58;5.38;;;1.60;;
66597;SDS011;57424;53.128;6.406;2023-05-16T10:42:25;6.05;;;1.90;;
66597;SDS011;57424;53.128;6.406;2023-05-16T10:44:53;4.88;;;2.03;;
66597;SDS011;57424;53.128;6.406;2023-05-16T10:47:22;4.07;;;1.70;;
66597;SDS011;57424;53.128;6.406;2023-05-16T10:49:48;3.15;;;1.40;;
66597;SDS011;57424;53.128;6.406;2023-05-16T10:52:14;6.68;;;1.85;;
66597;SDS011;57424;53.128;6.406;2023-05-16T10:54:42;5.75;;;1.65;;
66597;SDS011;57424;53.128;6.406;2023-05-16T10:57:18;5.53;;;1.80;;
66597;SDS011;57424;53.128;6.406;2023-05-16T10:59:47;5.93;;;2.10;;
66597;SDS011;57424;53.128;6.406;2023-05-16T11:02:20;5.22;;;1.75;;
66597;SDS011;57424;53.128;6.406;2023-05-16T11:04:55;3.92;;;1.60;;
66597;SDS011;57424;53.128;6.406;2023-05-16T11:07:23;6.13;;;1.90;;
66597;SDS011;57424;53.128;6.406;2023-05-16T11:12:44;7.60;;;1.30;;
66597;SDS011;57424;53.128;6.406;2023-05-16T11:15:19;10.88;;;2.10;;
66597;SDS011;57424;53.128;6.406;2023-05-16T11:17:49;3.95;;;1.60;;
66597;SDS011;57424;53.128;6.406;2023-05-16T11:20:26;4.80;;;1.70;;
66597;SDS011;57424;53.128;6.406;2023-05-16T11:23:16;6.72;;;1.83;;
66597;SDS011;57424;53.128;6.406;2023-05-16T11:25:44;8.18;;;2.72;;
66597;SDS011;57424;53.128;6.406;2023-05-16T11:28:13;8.57;;;2.70;;
66597;SDS011;57424;53.128;6.406;2023-05-16T11:30:42;12.15;;;3.47;;
66597;SDS011;57424;53.128;6.406;2023-05-16T11:33:09;6.40;;;2.70;;
66597;SDS011;57424;53.128;6.406;2023-05-16T11:35:36;9.02;;;3.03;;
66597;SDS011;57424;53.128;6.406;2023-05-16T11:38:02;10.70;;;3.10;;
66597;SDS011;57424;53.128;6.406;2023-05-16T11:40:28;14.77;;;4.68;;
66597;SDS011;57424;53.128;6.406;2023-05-16T11:42:58;13.48;;;3.97;;
66597;SDS011;57424;53.128;6.406;2023-05-16T11:45:24;10.18;;;3.25;;
66597;SDS011;57424;53.128;6.406;2023-05-16T11:47:50;11.32;;;3.33;;
66597;SDS011;57424;53.128;6.406;2023-05-16T11:50:19;11.32;;;4.00;;
66597;SDS011;57424;53.128;6.406;2023-05-16T11:52:53;11.75;;;3.70;;
66597;SDS011;57424;53.128;6.406;2023-05-16T11:55:22;12.15;;;3.60;;
66597;SDS011;57424;53.128;6.406;2023-05-16T11:57:52;11.30;;;3.65;;
66597;SDS011;57424;53.128;6.406;2023-05-16T12:00:19;10.32;;;3.58;;
66597;SDS011;57424;53.128;6.406;2023-05-16T12:02:48;12.93;;;4.72;;
66597;SDS011;57424;53.128;6.406;2023-05-16T12:05:15;12.77;;;3.60;;
66597;SDS011;57424;53.128;6.406;2023-05-16T12:07:42;10.50;;;3.15;;
66597;SDS011;57424;53.128;6.406;2023-05-16T12:10:09;13.85;;;4.38;;
66597;SDS011;57424;53.128;6.406;2023-05-16T12:12:36;12.00;;;4.17;;
66597;SDS011;57424;53.128;6.406;2023-05-16T12:15:03;10.23;;;3.95;;
66597;SDS011;57424;53.128;6.406;2023-05-16T12:17:30;9.25;;;3.45;;
66597;SDS011;57424;53.128;6.406;2023-05-16T12:19:57;12.98;;;4.32;;
66597;SDS011;57424;53.128;6.406;2023-05-16T12:22:24;9.35;;;3.30;;
66597;SDS011;57424;53.128;6.406;2023-05-16T12:24:49;11.98;;;3.78;;
66597;SDS011;57424;53.128;6.406;2023-05-16T12:27:22;15.75;;;4.15;;
66597;SDS011;57424;53.128;6.406;2023-05-16T12:29:49;10.95;;;3.47;;
66597;SDS011;57424;53.128;6.406;2023-05-16T12:32:20;11.85;;;4.05;;
66597;SDS011;57424;53.128;6.406;2023-05-16T12:34:49;10.25;;;3.38;;
66597;SDS011;57424;53.128;6.406;2023-05-16T12:37:16;11.75;;;3.38;;
66597;SDS011;57424;53.128;6.406;2023-05-16T12:39:42;10.38;;;3.20;;
66597;SDS011;57424;53.128;6.406;2023-05-16T12:42:10;9.07;;;3.70;;
66597;SDS011;57424;53.128;6.406;2023-05-16T12:44:37;11.20;;;3.60;;
66597;SDS011;57424;53.128;6.406;2023-05-16T12:47:03;12.10;;;3.63;;
66597;SDS011;57424;53.128;6.406;2023-05-16T12:49:35;11.60;;;3.70;;
66597;SDS011;57424;53.128;6.406;2023-05-16T12:52:01;10.65;;;3.80;;
66597;SDS011;57424;53.128;6.406;2023-05-16T12:54:29;10.88;;;4.18;;
66597;SDS011;57424;53.128;6.406;2023-05-16T12:56:55;11.95;;;3.78;;
66597;SDS011;57424;53.128;6.406;2023-05-16T12:59:21;12.02;;;3.92;;
66597;SDS011;57424;53.128;6.406;2023-05-16T13:01:46;12.63;;;3.78;;
66597;SDS011;57424;53.128;6.406;2023-05-16T13:04:12;7.80;;;2.97;;
66597;SDS011;57424;53.128;6.406;2023-05-16T13:06:43;8.57;;;2.92;;
66597;SDS011;57424;53.128;6.406;2023-05-16T13:09:09;5.47;;;2.60;;
66597;SDS011;57424;53.128;6.406;2023-05-16T13:11:35;12.95;;;3.65;;
66597;SDS011;57424;53.128;6.406;2023-05-16T13:14:01;12.60;;;3.45;;
66597;SDS011;57424;53.128;6.406;2023-05-16T13:16:26;9.43;;;3.05;;
66597;SDS011;57424;53.128;6.406;2023-05-16T13:18:52;10.80;;;3.20;;
66597;SDS011;57424;53.128;6.406;2023-05-16T13:21:18;6.78;;;2.90;;
66597;SDS011;57424;53.128;6.406;2023-05-16T13:23:43;9.52;;;3.13;;
66597;SDS011;57424;53.128;6.406;2023-05-16T13:26:09;13.27;;;3.38;;
66597;SDS011;57424;53.128;6.406;2023-05-16T13:28:34;11.75;;;3.40;;
66597;SDS011;57424;53.128;6.406;2023-05-16T13:31:01;11.68;;;4.03;;
66597;SDS011;57424;53.128;6.406;2023-05-16T13:33:27;9.85;;;3.10;;
66597;SDS011;57424;53.128;6.406;2023-05-16T13:35:52;8.00;;;2.90;;
66597;SDS011;57424;53.128;6.406;2023-05-16T13:38:19;9.02;;;3.17;;
66597;SDS011;57424;53.128;6.406;2023-05-16T13:40:44;11.02;;;3.38;;
66597;SDS011;57424;53.128;6.406;2023-05-16T13:43:10;7.28;;;4.00;;
66597;SDS011;57424;53.128;6.406;2023-05-16T13:48:03;8.23;;;2.92;;
66597;SDS011;57424;53.128;6.406;2023-05-16T13:50:30;8.27;;;2.70;;
66597;SDS011;57424;53.128;6.406;2023-05-16T13:52:56;7.38;;;3.38;;
66597;SDS011;57424;53.128;6.406;2023-05-16T13:55:21;7.57;;;3.13;;
66597;SDS011;57424;53.128;6.406;2023-05-16T13:57:47;7.45;;;2.90;;
66597;SDS011;57424;53.128;6.406;2023-05-16T14:00:13;8.65;;;3.10;;
66597;SDS011;57424;53.128;6.406;2023-05-16T14:02:39;11.43;;;3.15;;
66597;SDS011;57424;53.128;6.406;2023-05-16T14:05:06;7.85;;;3.17;;
66597;SDS011;57424;53.128;6.406;2023-05-16T14:07:33;6.85;;;3.38;;
66597;SDS011;57424;53.128;6.406;2023-05-16T14:09:58;8.05;;;3.10;;
66597;SDS011;57424;53.128;6.406;2023-05-16T14:12:24;8.73;;;3.30;;
66597;SDS011;57424;53.128;6.406;2023-05-16T14:14:49;10.23;;;2.97;;
66597;SDS011;57424;53.128;6.406;2023-05-16T14:17:15;12.00;;;4.68;;
66597;SDS011;57424;53.128;6.406;2023-05-16T14:19:41;9.98;;;3.58;;
66597;SDS011;57424;53.128;6.406;2023-05-16T14:22:06;10.23;;;3.40;;
66597;SDS011;57424;53.128;6.406;2023-05-16T14:24:32;10.43;;;3.70;;
66597;SDS011;57424;53.128;6.406;2023-05-16T14:26:58;9.15;;;3.45;;
66597;SDS011;57424;53.128;6.406;2023-05-16T14:29:24;7.20;;;3.08;;
66597;SDS011;57424;53.128;6.406;2023-05-16T14:31:50;10.38;;;3.63;;
66597;SDS011;57424;53.128;6.406;2023-05-16T14:34:16;7.72;;;3.13;;
66597;SDS011;57424;53.128;6.406;2023-05-16T14:36:42;9.27;;;3.30;;
66597;SDS011;57424;53.128;6.406;2023-05-16T14:39:08;6.80;;;2.95;;
66597;SDS011;57424;53.128;6.406;2023-05-16T14:41:34;8.63;;;3.00;;
66597;SDS011;57424;53.128;6.406;2023-05-16T14:44:00;7.18;;;2.90;;
66597;SDS011;57424;53.128;6.406;2023-05-16T14:46:25;9.75;;;3.67;;
66597;SDS011;57424;53.128;6.406;2023-05-16T14:48:51;6.05;;;2.75;;
66597;SDS011;57424;53.128;6.406;2023-05-16T14:51:17;8.07;;;2.90;;
66597;SDS011;57424;53.128;6.406;2023-05-16T14:53:42;7.85;;;3.22;;
66597;SDS011;57424;53.128;6.406;2023-05-16T14:56:08;6.22;;;2.72;;
66597;SDS011;57424;53.128;6.406;2023-05-16T14:58:33;9.98;;;2.65;;
66597;SDS011;57424;53.128;6.406;2023-05-16T15:00:59;11.00;;;3.05;;
66597;SDS011;57424;53.128;6.406;2023-05-16T15:03:25;10.15;;;3.40;;
66597;SDS011;57424;53.128;6.406;2023-05-16T15:05:51;8.60;;;3.10;;
66597;SDS011;57424;53.128;6.406;2023-05-16T15:08:16;8.10;;;2.70;;